createdAt,value
2023-03-10T00:00:22.600Z,8.61
2023-03-10T00:00:54.075Z,8.61
2023-03-10T00:01:24.887Z,8.61
2023-03-10T00:01:57.748Z,8.61
2023-03-10T00:02:28.743Z,8.61
2023-03-10T00:02:44.910Z,8.61
2023-03-10T00:03:16.972Z,8.61
2023-03-10T00:03:48.773Z,8.61
2023-03-10T00:04:21.723Z,8.61
2023-03-10T00:04:52.952Z,8.61
2023-03-10T00:05:25.844Z,8.61
2023-03-10T00:05:57.113Z,8.61
2023-03-10T00:06:29.546Z,8.61
2023-03-10T00:07:01.049Z,8.61
2023-03-10T00:07:33.778Z,8.61
2023-03-10T00:08:04.885Z,8.61
2023-03-10T00:08:39.002Z,8.61
2023-03-10T00:09:08.783Z,8.61
2023-03-10T00:09:41.722Z,8.61
2023-03-10T00:10:13.334Z,8.61
2023-03-10T00:10:45.818Z,8.61
2023-03-10T00:11:16.936Z,8.61
2023-03-10T00:11:49.856Z,8.61
2023-03-10T00:12:21.010Z,8.50
2023-03-10T00:12:53.789Z,8.50
2023-03-10T00:13:24.921Z,8.61
2023-03-10T00:13:57.918Z,8.61
2023-03-10T00:14:28.859Z,8.50
2023-03-10T00:15:03.309Z,8.50
2023-03-10T00:15:33.097Z,8.50
2023-03-10T00:16:05.873Z,8.50
2023-03-10T00:16:36.846Z,8.61
2023-03-10T00:17:09.840Z,8.61
2023-03-10T00:17:41.024Z,8.61
2023-03-10T00:18:13.574Z,8.61
2023-03-10T00:18:44.853Z,8.61
2023-03-10T00:19:17.764Z,8.61
2023-03-10T00:19:49.062Z,8.61
2023-03-10T00:20:21.985Z,8.61
2023-03-10T00:20:52.927Z,8.61
2023-03-10T00:21:25.900Z,8.61
2023-03-10T00:21:56.895Z,8.61
2023-03-10T00:22:13.083Z,8.61
2023-03-10T00:22:44.939Z,8.61
2023-03-10T00:23:17.003Z,8.61
2023-03-10T00:23:49.884Z,8.61
2023-03-10T00:24:20.978Z,8.61
2023-03-10T00:24:53.655Z,8.61
2023-03-10T00:25:25.240Z,8.61
2023-03-10T00:25:57.868Z,8.61
2023-03-10T00:26:28.969Z,8.61
2023-03-10T00:26:45.086Z,8.61
2023-03-10T00:27:16.815Z,8.72
2023-03-10T00:27:48.971Z,8.72
2023-03-10T00:28:21.054Z,8.72
2023-03-10T00:28:53.174Z,8.72
2023-03-10T00:29:24.854Z,8.72
2023-03-10T00:29:56.967Z,8.72
2023-03-10T00:30:32.888Z,8.72
2023-03-10T00:31:00.908Z,8.72
2023-03-10T00:31:33.679Z,8.72
2023-03-10T00:32:04.971Z,8.72
2023-03-10T00:32:37.809Z,8.72
2023-03-10T00:33:08.948Z,8.72
2023-03-10T00:33:41.747Z,8.77
2023-03-10T00:34:13.009Z,8.77
2023-03-10T00:34:45.767Z,8.77
2023-03-10T00:35:17.208Z,8.77
2023-03-10T00:35:49.713Z,8.77
2023-03-10T00:36:20.829Z,8.77
2023-03-10T00:36:53.813Z,8.77
2023-03-10T00:37:24.894Z,8.77
2023-03-10T00:37:58.183Z,8.77
2023-03-10T00:38:28.840Z,8.77
2023-03-10T00:38:45.133Z,8.77
2023-03-10T00:39:16.900Z,8.77
2023-03-10T00:39:49.001Z,8.77
2023-03-10T00:40:21.737Z,8.77
2023-03-10T00:40:52.844Z,8.77
2023-03-10T00:41:25.849Z,8.77
2023-03-10T00:41:56.980Z,8.77
2023-03-10T00:42:29.824Z,8.77
2023-03-10T00:43:00.871Z,8.77
2023-03-10T00:43:33.889Z,8.88
2023-03-10T00:44:04.998Z,8.88
2023-03-10T00:44:37.673Z,8.88
2023-03-10T00:45:10.089Z,8.88
2023-03-10T00:45:41.943Z,8.88
2023-03-10T00:46:13.033Z,8.88
2023-03-10T00:46:45.980Z,8.88
2023-03-10T00:47:16.948Z,8.88
2023-03-10T00:47:49.982Z,9.00
2023-03-10T00:48:20.806Z,9.00
2023-03-10T00:48:53.821Z,9.00
2023-03-10T00:49:24.942Z,9.00
2023-03-10T00:49:57.769Z,9.00
2023-03-10T00:50:29.229Z,9.00
2023-03-10T00:50:45.129Z,9.11
2023-03-10T00:51:16.916Z,9.11
2023-03-10T00:51:48.884Z,9.11
2023-03-10T00:52:20.978Z,9.11
2023-03-10T00:52:52.795Z,9.11
2023-03-10T00:53:25.944Z,9.11
2023-03-10T00:53:56.991Z,9.11
2023-03-10T00:54:29.864Z,9.11
2023-03-10T00:55:01.260Z,9.11
2023-03-10T00:55:33.750Z,9.11
2023-03-10T00:56:05.009Z,9.11
2023-03-10T00:56:37.516Z,9.11
2023-03-10T00:57:08.843Z,9.11
2023-03-10T00:57:41.774Z,9.11
2023-03-10T00:58:13.025Z,9.00
2023-03-10T00:58:45.653Z,9.00
2023-03-10T00:59:16.876Z,9.11
2023-03-10T00:59:50.858Z,9.11
2023-03-10T01:00:21.920Z,9.00
2023-03-10T01:00:53.834Z,9.00
2023-03-10T01:01:24.997Z,9.00
2023-03-10T01:01:57.865Z,9.00
2023-03-10T01:02:28.864Z,9.11
2023-03-10T01:03:01.921Z,9.11
2023-03-10T01:03:32.971Z,9.11
2023-03-10T01:04:05.604Z,9.11
2023-03-10T01:04:36.880Z,9.11
2023-03-10T01:05:10.836Z,9.11
2023-03-10T01:05:41.088Z,9.11
2023-03-10T01:06:13.485Z,9.11
2023-03-10T01:06:44.961Z,9.11
2023-03-10T01:07:17.905Z,9.11
2023-03-10T01:07:48.891Z,9.11
2023-03-10T01:08:21.675Z,9.11
2023-03-10T01:08:52.978Z,9.11
2023-03-10T01:09:25.757Z,9.11
2023-03-10T01:09:56.971Z,9.11
2023-03-10T01:10:13.503Z,9.11
2023-03-10T01:10:44.956Z,9.11
2023-03-10T01:11:17.027Z,9.11
2023-03-10T01:11:49.056Z,9.11
2023-03-10T01:12:20.822Z,9.11
2023-03-10T01:12:53.811Z,9.11
2023-03-10T01:13:25.030Z,9.11
2023-03-10T01:13:57.802Z,9.11
2023-03-10T01:14:28.870Z,9.11
2023-03-10T01:14:45.194Z,9.11
2023-03-10T01:15:17.836Z,9.11
2023-03-10T01:15:49.098Z,9.11
2023-03-10T01:16:21.093Z,9.11
2023-03-10T01:16:52.881Z,9.11
2023-03-10T01:17:25.838Z,9.11
2023-03-10T01:17:57.004Z,9.11
2023-03-10T01:18:29.872Z,9.11
2023-03-10T01:19:00.972Z,9.11
2023-03-10T01:19:33.754Z,9.11
2023-03-10T01:20:05.139Z,9.11
2023-03-10T01:20:37.624Z,9.11
2023-03-10T01:21:08.756Z,9.11
2023-03-10T01:21:41.885Z,9.11
2023-03-10T01:22:13.006Z,9.11
2023-03-10T01:22:45.745Z,9.11
2023-03-10T01:23:16.899Z,9.11
2023-03-10T01:23:49.669Z,9.11
2023-03-10T01:24:21.139Z,9.11
2023-03-10T01:24:53.819Z,9.11
2023-03-10T01:25:25.248Z,9.11
2023-03-10T01:25:57.829Z,9.11
2023-03-10T01:26:29.056Z,9.11
2023-03-10T01:26:45.051Z,9.11
2023-03-10T01:27:16.895Z,9.11
2023-03-10T01:27:49.061Z,9.11
2023-03-10T01:28:21.909Z,9.11
2023-03-10T01:28:53.080Z,9.11
2023-03-10T01:29:25.758Z,9.11
2023-03-10T01:29:57.026Z,9.11
2023-03-10T01:30:31.069Z,9.11
2023-03-10T01:31:01.100Z,9.11
2023-03-10T01:31:33.835Z,9.00
2023-03-10T01:32:05.012Z,9.00
2023-03-10T01:32:37.899Z,9.11
2023-03-10T01:33:08.926Z,9.11
2023-03-10T01:33:41.706Z,9.11
2023-03-10T01:34:12.960Z,9.11
2023-03-10T01:34:45.711Z,9.11
2023-03-10T01:35:17.179Z,9.11
2023-03-10T01:35:49.840Z,9.11
2023-03-10T01:36:21.110Z,9.11
2023-03-10T01:36:53.732Z,9.11
2023-03-10T01:37:24.930Z,9.11
2023-03-10T01:37:57.966Z,9.11
2023-03-10T01:38:28.869Z,9.11
2023-03-10T01:38:45.090Z,9.11
2023-03-10T01:39:16.842Z,9.11
2023-03-10T01:39:48.969Z,9.11
2023-03-10T01:40:21.891Z,9.11
2023-03-10T01:40:52.863Z,9.11
2023-03-10T01:41:25.824Z,9.11
2023-03-10T01:41:57.071Z,9.11
2023-03-10T01:42:29.933Z,9.11
2023-03-10T01:43:01.059Z,9.11
2023-03-10T01:43:33.865Z,9.11
2023-03-10T01:44:05.035Z,9.11
2023-03-10T01:44:37.669Z,9.11
2023-03-10T01:45:10.060Z,9.11
2023-03-10T01:45:41.939Z,9.11
2023-03-10T01:46:13.251Z,9.11
2023-03-10T01:46:45.790Z,9.11
2023-03-10T01:47:16.962Z,9.11
2023-03-10T01:47:49.785Z,9.11
2023-03-10T01:48:20.900Z,9.00
2023-03-10T01:48:53.625Z,9.00
2023-03-10T01:49:25.012Z,9.00
2023-03-10T01:49:57.717Z,9.00
2023-03-10T01:50:29.121Z,9.00
2023-03-10T01:50:45.053Z,9.00
2023-03-10T01:51:16.878Z,9.00
2023-03-10T01:51:48.871Z,9.00
2023-03-10T01:52:21.055Z,9.00
2023-03-10T01:52:53.068Z,9.00
2023-03-10T01:53:24.878Z,9.00
2023-03-10T01:53:56.856Z,9.00
2023-03-10T01:54:29.061Z,9.00
2023-03-10T01:55:01.295Z,9.00
2023-03-10T01:55:33.668Z,9.00
2023-03-10T01:56:04.949Z,9.00
2023-03-10T01:56:37.587Z,9.00
2023-03-10T01:57:08.906Z,9.00
2023-03-10T01:57:41.783Z,9.00
2023-03-10T01:58:12.990Z,9.00
2023-03-10T01:58:45.671Z,9.00
2023-03-10T01:59:16.991Z,8.88
2023-03-10T01:59:49.758Z,8.88
2023-03-10T02:00:22.184Z,9.00
2023-03-10T02:00:53.841Z,9.00
2023-03-10T02:01:24.953Z,8.88
2023-03-10T02:01:57.880Z,8.88
2023-03-10T02:02:28.939Z,8.88
2023-03-10T02:03:01.717Z,8.88
2023-03-10T02:03:32.977Z,8.88
2023-03-10T02:04:05.882Z,8.88
2023-03-10T02:04:36.870Z,8.88
2023-03-10T02:05:09.962Z,8.88
2023-03-10T02:05:41.041Z,8.88
2023-03-10T02:06:13.642Z,8.88
2023-03-10T02:06:45.046Z,8.88
2023-03-10T02:07:17.918Z,8.88
2023-03-10T02:07:48.953Z,8.88
2023-03-10T02:08:21.690Z,8.88
2023-03-10T02:08:53.098Z,8.77
2023-03-10T02:09:25.785Z,8.77
2023-03-10T02:09:56.898Z,8.77
2023-03-10T02:10:13.536Z,8.77
2023-03-10T02:10:45.067Z,8.77
2023-03-10T02:11:16.859Z,8.77
2023-03-10T02:11:49.020Z,8.77
2023-03-10T02:12:20.799Z,8.77
2023-03-10T02:12:53.775Z,8.77
2023-03-10T02:13:24.946Z,8.77
2023-03-10T02:13:58.645Z,8.77
2023-03-10T02:14:28.921Z,8.77
2023-03-10T02:14:45.196Z,8.77
2023-03-10T02:15:17.912Z,8.72
2023-03-10T02:15:49.048Z,8.72
2023-03-10T02:16:21.170Z,8.72
2023-03-10T02:16:53.103Z,8.72
2023-03-10T02:17:24.949Z,8.72
2023-03-10T02:17:57.097Z,8.72
2023-03-10T02:18:28.995Z,8.72
2023-03-10T02:19:00.920Z,8.72
2023-03-10T02:19:33.724Z,8.72
2023-03-10T02:20:05.237Z,8.72
2023-03-10T02:20:37.741Z,8.72
2023-03-10T02:21:08.858Z,8.72
2023-03-10T02:21:42.679Z,8.72
2023-03-10T02:22:12.980Z,8.72
2023-03-10T02:22:45.970Z,8.72
2023-03-10T02:23:16.966Z,8.72
2023-03-10T02:24:00.463Z,8.61
2023-03-10T02:24:21.024Z,8.61
2023-03-10T02:24:53.698Z,8.61
2023-03-10T02:25:25.298Z,8.61
2023-03-10T02:25:57.927Z,8.61
2023-03-10T02:26:28.925Z,8.61
2023-03-10T02:27:01.598Z,8.61
2023-03-10T02:27:33.005Z,8.61
2023-03-10T02:28:07.087Z,8.61
2023-03-10T02:28:36.862Z,8.61
2023-03-10T02:29:10.003Z,8.61
2023-03-10T02:29:52.566Z,8.61
2023-03-10T02:30:14.596Z,8.61
2023-03-10T02:30:45.092Z,8.61
2023-03-10T02:31:21.743Z,8.61
2023-03-10T02:31:48.946Z,8.61
2023-03-10T02:32:20.912Z,8.61
2023-03-10T02:32:53.999Z,8.61
2023-03-10T02:33:25.067Z,8.61
2023-03-10T02:33:57.698Z,8.61
2023-03-10T02:34:28.964Z,8.50
2023-03-10T02:35:02.194Z,8.50
2023-03-10T02:35:32.971Z,8.61
2023-03-10T02:36:05.815Z,8.61
2023-03-10T02:36:37.039Z,8.50
2023-03-10T02:37:09.842Z,8.50
2023-03-10T02:37:40.858Z,8.50
2023-03-10T02:38:13.808Z,8.50
2023-03-10T02:38:45.071Z,8.50
2023-03-10T02:39:17.683Z,8.50
2023-03-10T02:39:48.890Z,8.50
2023-03-10T02:40:22.386Z,8.50
2023-03-10T02:40:53.136Z,8.50
2023-03-10T02:41:25.760Z,8.50
2023-03-10T02:41:56.977Z,8.50
2023-03-10T02:42:30.010Z,8.50
2023-03-10T02:43:00.864Z,8.50
2023-03-10T02:43:33.586Z,8.50
2023-03-10T02:44:05.041Z,8.50
2023-03-10T02:44:37.935Z,8.50
2023-03-10T02:45:10.054Z,8.50
2023-03-10T02:45:42.093Z,8.50
2023-03-10T02:46:13.223Z,8.50
2023-03-10T02:46:45.719Z,8.50
2023-03-10T02:47:16.981Z,8.50
2023-03-10T02:47:49.822Z,8.50
2023-03-10T02:48:21.143Z,8.50
2023-03-10T02:48:53.941Z,8.50
2023-03-10T02:49:24.988Z,8.50
2023-03-10T02:49:58.045Z,8.50
2023-03-10T02:50:29.151Z,8.50
2023-03-10T02:51:01.770Z,8.50
2023-03-10T02:51:32.921Z,8.50
2023-03-10T02:52:06.044Z,8.50
2023-03-10T02:52:36.892Z,8.50
2023-03-10T02:53:09.724Z,8.50
2023-03-10T02:53:41.010Z,8.50
2023-03-10T02:54:13.711Z,8.50
2023-03-10T02:54:44.884Z,8.38
2023-03-10T02:55:18.174Z,8.38
2023-03-10T02:55:49.078Z,8.38
2023-03-10T02:56:21.792Z,8.38
2023-03-10T02:56:53.059Z,8.38
2023-03-10T02:57:27.045Z,8.38
2023-03-10T02:57:57.152Z,8.38
2023-03-10T02:58:29.917Z,8.38
2023-03-10T02:59:01.203Z,8.38
2023-03-10T02:59:34.039Z,8.38
2023-03-10T03:00:06.842Z,8.38
2023-03-10T03:00:38.246Z,8.38
2023-03-10T03:01:09.296Z,8.38
2023-03-10T03:01:43.283Z,8.38
2023-03-10T03:02:13.442Z,8.38
2023-03-10T03:02:46.410Z,8.38
2023-03-10T03:03:17.530Z,8.38
2023-03-10T03:03:50.358Z,8.38
2023-03-10T03:04:21.499Z,8.38
2023-03-10T03:04:54.103Z,8.38
2023-03-10T03:05:25.589Z,8.38
2023-03-10T03:05:58.172Z,8.38
2023-03-10T03:06:29.380Z,8.27
2023-03-10T03:07:02.061Z,8.27
2023-03-10T03:07:32.979Z,8.27
2023-03-10T03:08:06.009Z,8.27
2023-03-10T03:08:37.109Z,8.27
2023-03-10T03:09:09.814Z,8.27
2023-03-10T03:09:41.146Z,8.27
2023-03-10T03:10:14.098Z,8.27
2023-03-10T03:10:44.992Z,8.27
2023-03-10T03:11:17.768Z,8.27
2023-03-10T03:11:48.960Z,8.27
2023-03-10T03:12:22.484Z,8.27
2023-03-10T03:12:52.938Z,8.22
2023-03-10T03:13:25.684Z,8.22
2023-03-10T03:13:57.052Z,8.22
2023-03-10T03:14:29.844Z,8.22
2023-03-10T03:15:02.239Z,8.22
2023-03-10T03:15:34.081Z,8.22
2023-03-10T03:16:04.861Z,8.22
2023-03-10T03:16:37.882Z,8.22
2023-03-10T03:17:09.033Z,8.22
2023-03-10T03:17:41.830Z,8.22
2023-03-10T03:18:12.944Z,8.22
2023-03-10T03:18:45.852Z,8.22
2023-03-10T03:19:17.052Z,8.22
2023-03-10T03:19:50.007Z,8.22
2023-03-10T03:20:21.284Z,8.22
2023-03-10T03:20:53.871Z,8.22
2023-03-10T03:21:25.101Z,8.11
2023-03-10T03:21:57.619Z,8.11
2023-03-10T03:22:28.957Z,8.11
2023-03-10T03:23:01.922Z,8.11
2023-03-10T03:23:33.187Z,8.22
2023-03-10T03:24:05.895Z,8.22
2023-03-10T03:24:37.053Z,8.11
2023-03-10T03:25:10.193Z,8.11
2023-03-10T03:25:41.010Z,8.11
2023-03-10T03:26:13.912Z,8.11
2023-03-10T03:26:45.125Z,8.11
2023-03-10T03:27:17.738Z,8.11
2023-03-10T03:27:49.011Z,8.11
2023-03-10T03:28:21.758Z,8.11
2023-03-10T03:28:53.314Z,8.11
2023-03-10T03:29:25.816Z,8.11
2023-03-10T03:29:57.157Z,8.00
2023-03-10T03:30:32.749Z,8.00
2023-03-10T03:31:01.068Z,8.00
2023-03-10T03:31:34.054Z,8.00
2023-03-10T03:32:05.355Z,8.00
2023-03-10T03:32:38.090Z,8.00
2023-03-10T03:33:09.143Z,8.00
2023-03-10T03:33:41.977Z,8.00
2023-03-10T03:34:13.267Z,8.00
2023-03-10T03:34:46.082Z,8.00
2023-03-10T03:35:17.515Z,8.00
2023-03-10T03:35:50.959Z,8.00
2023-03-10T03:36:21.271Z,8.00
2023-03-10T03:36:53.782Z,8.00
2023-03-10T03:37:25.108Z,8.00
2023-03-10T03:37:58.001Z,8.00
2023-03-10T03:38:29.117Z,8.00
2023-03-10T03:38:45.064Z,8.00
2023-03-10T03:39:17.237Z,8.00
2023-03-10T03:39:49.007Z,8.00
2023-03-10T03:40:22.288Z,8.00
2023-03-10T03:40:53.043Z,8.00
2023-03-10T03:41:25.700Z,8.00
2023-03-10T03:41:57.043Z,8.00
2023-03-10T03:42:29.728Z,8.00
2023-03-10T03:43:01.049Z,8.00
2023-03-10T03:43:33.664Z,8.00
2023-03-10T03:44:05.034Z,8.00
2023-03-10T03:44:37.915Z,8.00
2023-03-10T03:45:10.071Z,8.00
2023-03-10T03:45:41.969Z,8.00
2023-03-10T03:46:13.115Z,8.00
2023-03-10T03:46:45.552Z,7.88
2023-03-10T03:47:17.007Z,7.88
2023-03-10T03:47:49.918Z,7.88
2023-03-10T03:48:22.485Z,7.88
2023-03-10T03:48:53.750Z,7.88
2023-03-10T03:49:25.048Z,7.88
2023-03-10T03:49:58.673Z,7.88
2023-03-10T03:50:29.411Z,7.88
2023-03-10T03:50:45.296Z,7.88
2023-03-10T03:51:17.077Z,7.88
2023-03-10T03:51:49.085Z,7.88
2023-03-10T03:52:21.959Z,7.88
2023-03-10T03:52:53.269Z,7.88
2023-03-10T03:53:25.880Z,7.88
2023-03-10T03:53:57.076Z,7.88
2023-03-10T03:54:29.949Z,7.88
2023-03-10T03:55:01.660Z,7.88
2023-03-10T03:55:33.855Z,7.88
2023-03-10T03:56:05.183Z,7.88
2023-03-10T03:56:38.084Z,7.88
2023-03-10T03:57:09.162Z,7.88
2023-03-10T03:57:41.755Z,7.88
2023-03-10T03:58:13.064Z,7.88
2023-03-10T03:58:45.783Z,7.88
2023-03-10T03:59:17.004Z,7.88
2023-03-10T03:59:49.856Z,7.88
2023-03-10T04:00:22.118Z,7.88
2023-03-10T04:00:53.902Z,7.88
2023-03-10T04:01:24.911Z,7.88
2023-03-10T04:01:57.854Z,7.77
2023-03-10T04:02:29.110Z,7.77
2023-03-10T04:03:01.753Z,7.77
2023-03-10T04:03:33.073Z,7.77
2023-03-10T04:04:05.882Z,7.77
2023-03-10T04:04:36.865Z,7.77
2023-03-10T04:05:10.060Z,7.77
2023-03-10T04:05:40.998Z,7.77
2023-03-10T04:06:13.739Z,7.77
2023-03-10T04:06:44.923Z,7.77
2023-03-10T04:07:17.912Z,7.77
2023-03-10T04:07:49.037Z,7.77
2023-03-10T04:08:21.690Z,7.77
2023-03-10T04:08:52.958Z,7.77
2023-03-10T04:09:25.913Z,7.77
2023-03-10T04:09:56.941Z,7.77
2023-03-10T04:10:13.509Z,7.77
2023-03-10T04:10:45.026Z,7.77
2023-03-10T04:11:16.979Z,7.77
2023-03-10T04:11:49.099Z,7.77
2023-03-10T04:12:21.036Z,7.77
2023-03-10T04:12:52.892Z,7.77
2023-03-10T04:13:25.044Z,7.72
2023-03-10T04:13:57.111Z,7.72
2023-03-10T04:14:28.982Z,7.72
2023-03-10T04:15:03.470Z,7.72
2023-03-10T04:15:33.407Z,7.72
2023-03-10T04:16:06.152Z,7.72
2023-03-10T04:16:37.162Z,7.72
2023-03-10T04:17:12.226Z,7.72
2023-03-10T04:17:41.294Z,7.72
2023-03-10T04:18:13.883Z,7.72
2023-03-10T04:18:45.091Z,7.72
2023-03-10T04:19:18.783Z,7.72
2023-03-10T04:20:00.739Z,7.72
2023-03-10T04:20:23.273Z,7.72
2023-03-10T04:20:53.187Z,7.61
2023-03-10T04:21:26.058Z,7.61
2023-03-10T04:21:57.060Z,7.61
2023-03-10T04:22:29.955Z,7.61
2023-03-10T04:23:01.121Z,7.61
2023-03-10T04:23:33.661Z,7.61
2023-03-10T04:24:04.982Z,7.61
2023-03-10T04:24:38.107Z,7.61
2023-03-10T04:25:09.150Z,7.61
2023-03-10T04:25:41.971Z,7.61
2023-03-10T04:26:13.059Z,7.61
2023-03-10T04:26:46.112Z,7.61
2023-03-10T04:27:17.004Z,7.61
2023-03-10T04:27:49.994Z,7.61
2023-03-10T04:28:21.142Z,7.50
2023-03-10T04:28:55.709Z,7.50
2023-03-10T04:29:24.883Z,7.61
2023-03-10T04:29:57.871Z,7.61
2023-03-10T04:30:30.344Z,7.61
2023-03-10T04:31:01.996Z,7.61
2023-03-10T04:31:33.241Z,7.61
2023-03-10T04:32:06.198Z,7.61
2023-03-10T04:32:37.288Z,7.61
2023-03-10T04:33:09.799Z,7.61
2023-03-10T04:33:40.966Z,7.61
2023-03-10T04:34:13.855Z,7.61
2023-03-10T04:34:44.920Z,7.61
2023-03-10T04:35:17.858Z,7.61
2023-03-10T04:35:49.065Z,7.61
2023-03-10T04:36:21.865Z,7.61
2023-03-10T04:36:52.965Z,7.61
2023-03-10T04:37:25.870Z,7.61
2023-03-10T04:37:57.070Z,7.61
2023-03-10T04:38:29.859Z,7.61
2023-03-10T04:39:01.015Z,7.61
2023-03-10T04:39:34.045Z,7.61
2023-03-10T04:40:05.374Z,7.61
2023-03-10T04:40:37.918Z,7.61
2023-03-10T04:41:09.029Z,7.61
2023-03-10T04:41:43.039Z,7.61
2023-03-10T04:42:12.939Z,7.72
2023-03-10T04:42:45.941Z,7.72
2023-03-10T04:43:17.137Z,7.72
2023-03-10T04:43:50.103Z,7.72
2023-03-10T04:44:30.491Z,7.72
2023-03-10T04:44:53.863Z,7.72
2023-03-10T04:45:26.162Z,7.72
2023-03-10T04:45:58.219Z,7.72
2023-03-10T04:46:29.160Z,7.72
2023-03-10T04:47:01.941Z,7.72
2023-03-10T04:47:32.906Z,7.77
2023-03-10T04:48:05.854Z,7.77
2023-03-10T04:48:37.076Z,7.77
2023-03-10T04:49:10.031Z,7.77
2023-03-10T04:49:40.974Z,7.77
2023-03-10T04:50:14.100Z,7.77
2023-03-10T04:50:45.180Z,7.77
2023-03-10T04:51:18.512Z,7.77
2023-03-10T04:51:48.958Z,7.77
2023-03-10T04:52:22.807Z,7.77
2023-03-10T04:52:53.123Z,7.77
2023-03-10T04:53:25.818Z,7.77
2023-03-10T04:53:57.066Z,7.88
2023-03-10T04:54:30.002Z,7.88
2023-03-10T04:55:01.315Z,7.88
2023-03-10T04:55:33.786Z,7.88
2023-03-10T04:56:05.184Z,7.88
2023-03-10T04:56:37.867Z,7.88
2023-03-10T04:57:08.986Z,8.00
2023-03-10T04:57:41.912Z,8.00
2023-03-10T04:58:13.057Z,7.88
2023-03-10T04:58:45.872Z,7.88
2023-03-10T04:59:17.045Z,8.00
2023-03-10T04:59:49.905Z,8.00
2023-03-10T05:00:22.725Z,8.00
2023-03-10T05:01:02.830Z,8.00
2023-03-10T05:01:25.058Z,8.00
2023-03-10T05:01:58.025Z,8.00
2023-03-10T05:02:28.991Z,8.00
2023-03-10T05:03:01.795Z,8.00
2023-03-10T05:03:33.094Z,8.11
2023-03-10T05:04:06.035Z,8.11
2023-03-10T05:04:37.039Z,8.11
2023-03-10T05:05:10.052Z,8.11
2023-03-10T05:05:41.103Z,8.11
2023-03-10T05:06:13.716Z,8.11
2023-03-10T05:06:45.093Z,8.11
2023-03-10T05:07:17.900Z,8.11
2023-03-10T05:07:49.071Z,8.22
2023-03-10T05:08:21.683Z,8.22
2023-03-10T05:08:53.136Z,8.22
2023-03-10T05:09:25.891Z,8.22
2023-03-10T05:09:56.931Z,8.22
2023-03-10T05:10:30.302Z,8.22
2023-03-10T05:11:01.147Z,8.22
2023-03-10T05:11:33.805Z,8.22
2023-03-10T05:12:05.027Z,8.27
2023-03-10T05:12:38.150Z,8.27
2023-03-10T05:13:08.844Z,8.27
2023-03-10T05:13:41.863Z,8.27
2023-03-10T05:14:13.056Z,8.27
2023-03-10T05:14:45.973Z,8.27
2023-03-10T05:15:17.973Z,8.27
2023-03-10T05:15:50.142Z,8.27
2023-03-10T05:16:21.074Z,8.27
2023-03-10T05:16:53.730Z,8.27
2023-03-10T05:17:24.968Z,8.38
2023-03-10T05:17:57.853Z,8.38
2023-03-10T05:18:29.130Z,8.38
2023-03-10T05:19:01.736Z,8.38
2023-03-10T05:19:32.978Z,8.38
2023-03-10T05:20:06.090Z,8.38
2023-03-10T05:20:36.840Z,8.38
2023-03-10T05:21:09.937Z,8.38
2023-03-10T05:21:41.084Z,8.38
2023-03-10T05:22:13.909Z,8.38
2023-03-10T05:22:44.939Z,8.50
2023-03-10T05:23:17.910Z,8.50
2023-03-10T05:23:49.106Z,8.50
2023-03-10T05:24:21.687Z,8.50
2023-03-10T05:24:52.965Z,8.50
2023-03-10T05:25:26.226Z,8.50
2023-03-10T05:25:57.163Z,8.50
2023-03-10T05:26:29.767Z,8.50
2023-03-10T05:27:01.164Z,8.50
2023-03-10T05:27:33.959Z,8.50
2023-03-10T05:28:05.086Z,8.61
2023-03-10T05:28:37.888Z,8.61
2023-03-10T05:29:09.062Z,8.61
2023-03-10T05:29:41.992Z,8.61
2023-03-10T05:30:13.873Z,8.61
2023-03-10T05:30:47.090Z,8.61
2023-03-10T05:31:17.190Z,8.72
2023-03-10T05:31:49.865Z,8.72
2023-03-10T05:32:21.043Z,8.72
2023-03-10T05:32:53.944Z,8.72
2023-03-10T05:33:25.228Z,8.72
2023-03-10T05:33:57.849Z,8.72
2023-03-10T05:34:29.035Z,8.72
2023-03-10T05:35:02.484Z,8.72
2023-03-10T05:35:32.920Z,8.72
2023-03-10T05:36:05.783Z,8.72
2023-03-10T05:36:36.988Z,8.72
2023-03-10T05:37:09.934Z,8.72
2023-03-10T05:37:40.889Z,8.77
2023-03-10T05:38:13.792Z,8.77
2023-03-10T05:38:45.154Z,8.77
2023-03-10T05:39:17.668Z,8.77
2023-03-10T05:39:49.020Z,8.77
2023-03-10T05:40:22.492Z,8.77
2023-03-10T05:40:52.954Z,8.77
2023-03-10T05:41:25.906Z,8.77
2023-03-10T05:41:57.033Z,8.77
2023-03-10T05:42:29.870Z,8.77
2023-03-10T05:43:00.928Z,8.77
2023-03-10T05:43:33.868Z,8.77
2023-03-10T05:44:05.076Z,8.77
2023-03-10T05:44:37.821Z,8.77
2023-03-10T05:45:10.187Z,8.77
2023-03-10T05:45:42.041Z,8.77
2023-03-10T05:46:13.247Z,8.77
2023-03-10T05:46:45.975Z,8.77
2023-03-10T05:47:16.995Z,8.77
2023-03-10T05:47:49.824Z,8.77
2023-03-10T05:48:20.905Z,8.88
2023-03-10T05:48:53.609Z,8.88
2023-03-10T05:49:25.096Z,8.88
2023-03-10T05:50:01.086Z,8.88
2023-03-10T05:50:29.212Z,8.88
2023-03-10T05:50:45.520Z,8.88
2023-03-10T05:51:17.214Z,8.88
2023-03-10T05:51:49.284Z,8.88
2023-03-10T05:52:21.278Z,8.88
2023-03-10T05:52:53.361Z,8.77
2023-03-10T05:53:25.278Z,8.77
2023-03-10T05:53:57.281Z,8.88
2023-03-10T05:54:29.307Z,8.88
2023-03-10T05:55:01.606Z,8.88
2023-03-10T05:55:34.008Z,8.88
2023-03-10T05:56:05.213Z,8.88
2023-03-10T05:56:38.234Z,8.88
2023-03-10T05:57:09.201Z,8.77
2023-03-10T05:57:43.881Z,8.77
2023-03-10T05:58:13.326Z,8.77
2023-03-10T05:58:47.014Z,8.77
2023-03-10T05:59:17.263Z,8.77
2023-03-10T05:59:50.325Z,8.77
2023-03-10T06:00:22.663Z,8.77
2023-03-10T06:00:54.049Z,8.77
2023-03-10T06:01:25.212Z,8.77
2023-03-10T06:01:58.207Z,8.77
2023-03-10T06:02:29.247Z,8.72
2023-03-10T06:02:45.420Z,8.72
2023-03-10T06:03:17.355Z,8.72
2023-03-10T06:03:49.370Z,8.72
2023-03-10T06:04:24.022Z,8.72
2023-03-10T06:04:53.352Z,8.72
2023-03-10T06:05:26.359Z,8.72
2023-03-10T06:05:57.434Z,8.72
2023-03-10T06:06:30.067Z,8.72
2023-03-10T06:07:01.269Z,8.72
2023-03-10T06:07:34.028Z,8.72
2023-03-10T06:08:05.280Z,8.72
2023-03-10T06:08:38.172Z,8.72
2023-03-10T06:09:09.144Z,8.72
2023-03-10T06:09:42.106Z,8.72
2023-03-10T06:10:13.795Z,8.72
2023-03-10T06:10:46.850Z,8.72
2023-03-10T06:11:17.337Z,8.72
2023-03-10T06:11:50.100Z,8.61
2023-03-10T06:12:21.294Z,8.61
2023-03-10T06:12:55.232Z,8.61
2023-03-10T06:13:25.315Z,8.61
2023-03-10T06:13:58.132Z,8.61
2023-03-10T06:14:29.169Z,8.61
2023-03-10T06:15:03.562Z,8.61
2023-03-10T06:15:33.335Z,8.61
2023-03-10T06:16:06.458Z,8.61
2023-03-10T06:16:37.395Z,8.61
2023-03-10T06:17:10.143Z,8.61
2023-03-10T06:17:41.312Z,8.61
2023-03-10T06:18:13.864Z,8.61
2023-03-10T06:18:45.197Z,8.61
2023-03-10T06:19:18.168Z,8.61
2023-03-10T06:19:49.396Z,8.61
2023-03-10T06:20:22.487Z,8.61
2023-03-10T06:20:53.367Z,8.61
2023-03-10T06:21:26.146Z,8.61
2023-03-10T06:21:57.323Z,8.61
2023-03-10T06:22:31.383Z,8.61
2023-03-10T06:23:01.312Z,8.61
2023-03-10T06:23:33.916Z,8.72
2023-03-10T06:24:05.211Z,8.72
2023-03-10T06:24:39.229Z,8.72
2023-03-10T06:25:10.867Z,8.72
2023-03-10T06:25:43.715Z,8.72
2023-03-10T06:26:13.296Z,8.72
2023-03-10T06:26:47.160Z,8.72
2023-03-10T06:27:17.146Z,8.72
2023-03-10T06:27:50.162Z,8.72
2023-03-10T06:28:21.342Z,8.72
2023-03-10T06:28:54.286Z,8.72
2023-03-10T06:29:25.168Z,8.72
2023-03-10T06:29:58.111Z,8.77
2023-03-10T06:30:30.712Z,8.77
2023-03-10T06:31:02.122Z,8.77
2023-03-10T06:31:33.381Z,8.77
2023-03-10T06:32:06.492Z,8.77
2023-03-10T06:32:37.457Z,8.77
2023-03-10T06:33:10.052Z,8.77
2023-03-10T06:33:41.335Z,8.77
2023-03-10T06:34:14.257Z,8.77
2023-03-10T06:34:45.357Z,8.77
2023-03-10T06:35:18.477Z,8.77
2023-03-10T06:35:49.494Z,8.77
2023-03-10T06:36:22.197Z,8.77
2023-03-10T06:36:53.265Z,8.77
2023-03-10T06:37:26.029Z,8.88
2023-03-10T06:37:57.310Z,8.88
2023-03-10T06:38:30.136Z,8.88
2023-03-10T06:39:01.251Z,8.88
2023-03-10T06:39:34.077Z,8.88
2023-03-10T06:40:05.613Z,8.88
2023-03-10T06:40:38.097Z,8.88
2023-03-10T06:41:09.373Z,8.88
2023-03-10T06:41:42.213Z,8.88
2023-03-10T06:42:13.228Z,8.88
2023-03-10T06:42:46.243Z,9.00
2023-03-10T06:43:17.399Z,9.00
2023-03-10T06:43:50.175Z,9.00
2023-03-10T06:44:21.230Z,9.00
2023-03-10T06:44:53.974Z,9.00
2023-03-10T06:45:26.452Z,9.00
2023-03-10T06:45:58.324Z,9.00
2023-03-10T06:46:29.240Z,9.00
2023-03-10T06:47:02.224Z,9.00
2023-03-10T06:47:33.174Z,9.00
2023-03-10T06:48:06.108Z,9.00
2023-03-10T06:48:37.222Z,9.00
2023-03-10T06:49:10.427Z,9.11
2023-03-10T06:49:41.201Z,9.11
2023-03-10T06:50:14.270Z,9.11
2023-03-10T06:50:45.444Z,9.11
2023-03-10T06:51:17.941Z,9.11
2023-03-10T06:51:49.304Z,9.11
2023-03-10T06:52:22.404Z,9.11
2023-03-10T06:52:53.426Z,9.11
2023-03-10T06:53:27.240Z,9.11
2023-03-10T06:53:57.373Z,9.11
2023-03-10T06:54:31.173Z,9.11
2023-03-10T06:55:01.735Z,9.11
2023-03-10T06:55:34.337Z,9.11
2023-03-10T06:56:05.399Z,9.11
2023-03-10T06:56:38.181Z,9.11
2023-03-10T06:57:09.332Z,9.11
2023-03-10T06:57:42.337Z,9.11
2023-03-10T06:58:13.365Z,9.11
2023-03-10T06:58:46.153Z,9.11
2023-03-10T06:59:17.334Z,9.11
2023-03-10T06:59:50.016Z,9.11
2023-03-10T07:00:23.042Z,9.11
2023-03-10T07:00:54.222Z,9.22
2023-03-10T07:01:25.397Z,9.22